Time;durP1;ratioP1;P1;durP2;ratioP2;P2;SDS_P1;SDS_P2;PMS_P1;PMS_P2;Temp;Humidity;BMP_temperature;BMP_pressure;BME280_temperature;BME280_humidity;BME280_pressure;Samples;Min_cycle;Max_cycle;Signal;HPM_P1;HPM_P2
2022/05/12 00:00:57;;;;;;;6.78;1.85;;;11.70;99.90;;;;;;5024815;28;20396;-71
2022/05/12 00:03:24;;;;;;;5.80;1.40;;;11.70;99.90;;;;;;5024379;28;20114;-71
2022/05/12 00:05:50;;;;;;;7.45;1.98;;;11.60;99.90;;;;;;5006754;28;20474;-71
2022/05/12 00:08:16;;;;;;;5.85;1.73;;;11.50;99.90;;;;;;5007253;28;20045;-71
2022/05/12 00:10:42;;;;;;;3.85;1.33;;;11.50;99.90;;;;;;5018903;28;20046;-71
2022/05/12 00:13:08;;;;;;;7.47;1.52;;;11.50;99.90;;;;;;4990927;28;20071;-71
2022/05/12 00:15:37;;;;;;;6.28;1.67;;;11.40;99.90;;;;;;5023546;28;20053;-71
2022/05/12 00:18:06;;;;;;;7.00;1.45;;;11.40;99.90;;;;;;5007655;28;20055;-71
2022/05/12 00:20:35;;;;;;;7.32;2.00;;;11.30;99.90;;;;;;5007266;28;20721;-71
2022/05/12 00:23:15;;;;;;;4.70;1.40;;;11.30;99.90;;;;;;5023530;28;20036;-71
2022/05/12 00:25:45;;;;;;;5.63;1.08;;;11.30;99.90;;;;;;5009294;28;20041;-71
2022/05/12 00:28:11;;;;;;;7.25;1.45;;;11.30;99.90;;;;;;5007756;28;20487;-71
2022/05/12 00:30:38;;;;;;;5.13;1.40;;;11.30;99.90;;;;;;5007775;28;20676;-71
2022/05/12 00:33:05;;;;;;;6.47;1.52;;;11.20;99.90;;;;;;5008020;28;20137;-71
2022/05/12 00:35:31;;;;;;;3.75;1.30;;;11.10;99.90;;;;;;5026611;28;20609;-71
2022/05/12 00:37:56;;;;;;;4.40;1.60;;;11.10;99.90;;;;;;4994532;28;20132;-72
2022/05/12 00:40:23;;;;;;;5.15;1.45;;;11.10;99.90;;;;;;4994975;28;20457;-71
2022/05/12 00:42:57;;;;;;;4.95;1.10;;;11.10;99.90;;;;;;5025617;28;20142;-71
2022/05/12 00:45:25;;;;;;;5.78;1.23;;;11.10;99.90;;;;;;5027486;28;20041;-71
2022/05/12 00:47:51;;;;;;;6.28;1.60;;;11.00;99.90;;;;;;4994920;28;20041;-71
2022/05/12 00:50:19;;;;;;;4.68;1.50;;;11.00;99.90;;;;;;5026900;28;20138;-71
2022/05/12 00:52:45;;;;;;;5.10;1.50;;;11.00;99.90;;;;;;5023906;28;20045;-71
2022/05/12 00:55:19;;;;;;;7.50;1.67;;;10.90;99.90;;;;;;5005641;28;20043;-71
2022/05/12 00:57:51;;;;;;;6.63;1.58;;;10.90;99.90;;;;;;5046105;28;20061;-71
2022/05/12 01:00:19;;;;;;;5.38;1.35;;;10.90;99.90;;;;;;5027601;28;20040;-70
2022/05/12 01:02:49;;;;;;;6.43;1.80;;;10.80;99.90;;;;;;5027812;28;20037;-70
2022/05/12 01:05:16;;;;;;;4.05;1.50;;;10.80;99.90;;;;;;5007629;28;20045;-70
2022/05/12 01:07:42;;;;;;;7.47;2.38;;;10.70;99.90;;;;;;5008024;28;20045;-70
2022/05/12 01:10:09;;;;;;;6.55;1.80;;;10.60;99.90;;;;;;4992857;28;20119;-70
2022/05/12 01:12:46;;;;;;;6.35;2.30;;;10.60;99.90;;;;;;5009386;28;20049;-70
2022/05/12 01:15:12;;;;;;;5.05;2.10;;;10.60;99.90;;;;;;5025855;28;20052;-70
2022/05/12 01:17:38;;;;;;;6.10;2.00;;;10.60;99.90;;;;;;5009256;28;20056;-70
2022/05/12 01:20:04;;;;;;;6.65;1.70;;;10.50;99.90;;;;;;5005820;28;20719;-71
2022/05/12 01:22:36;;;;;;;5.05;1.98;;;10.50;99.90;;;;;;5025353;28;20764;-71
2022/05/12 01:25:12;;;;;;;3.72;1.75;;;10.40;99.90;;;;;;5008326;28;20057;-70
2022/05/12 01:27:37;;;;;;;4.30;1.58;;;10.40;99.90;;;;;;5024645;28;20150;-70
2022/05/12 01:30:04;;;;;;;5.10;1.90;;;10.30;99.90;;;;;;5007838;28;20527;-71
2022/05/12 01:32:30;;;;;;;5.22;2.08;;;10.30;99.90;;;;;;5008162;28;20053;-71
2022/05/12 01:34:56;;;;;;;3.72;1.33;;;10.30;99.90;;;;;;5022974;28;20037;-70
2022/05/12 01:37:23;;;;;;;4.70;1.67;;;10.30;99.90;;;;;;5024914;28;20158;-71
2022/05/12 01:39:50;;;;;;;7.72;1.90;;;10.30;99.90;;;;;;5006186;28;20049;-71
2022/05/12 01:42:16;;;;;;;4.63;1.50;;;10.30;99.90;;;;;;5008821;28;20124;-70
2022/05/12 01:44:42;;;;;;;3.97;1.80;;;10.30;99.90;;;;;;5004755;28;20104;-70
2022/05/12 01:47:12;;;;;;;4.45;1.60;;;10.30;99.90;;;;;;5024879;28;20067;-70
2022/05/12 01:49:37;;;;;;;5.80;1.75;;;10.30;99.90;;;;;;5008615;28;20045;-71
2022/05/12 01:52:04;;;;;;;4.72;1.40;;;10.30;99.90;;;;;;5006082;28;20391;-70
2022/05/12 01:54:30;;;;;;;8.13;1.85;;;10.20;99.90;;;;;;5024174;28;20048;-71
2022/05/12 01:56:56;;;;;;;5.43;1.60;;;10.30;99.90;;;;;;5022815;28;20041;-70
2022/05/12 01:59:23;;;;;;;6.60;1.73;;;10.30;99.90;;;;;;5022857;28;20523;-70
2022/05/12 02:01:49;;;;;;;4.05;1.50;;;10.20;99.90;;;;;;5017274;28;20049;-70
2022/05/12 02:04:16;;;;;;;4.47;1.70;;;10.20;99.90;;;;;;5005187;28;20528;-70
2022/05/12 02:06:46;;;;;;;7.15;2.47;;;10.20;99.90;;;;;;5035558;28;20389;-70
2022/05/12 02:09:12;;;;;;;6.67;1.60;;;10.20;99.90;;;;;;5007850;28;20073;-70
2022/05/12 02:11:38;;;;;;;5.07;1.70;;;10.10;99.90;;;;;;5007879;28;20468;-70
2022/05/12 02:14:05;;;;;;;4.82;1.60;;;10.10;99.90;;;;;;4992758;28;20042;-71
2022/05/12 02:16:35;;;;;;;5.47;1.55;;;10.10;99.90;;;;;;5008573;28;20072;-71
2022/05/12 02:19:03;;;;;;;4.07;1.40;;;10.00;99.90;;;;;;5024723;28;20679;-71
2022/05/12 02:21:28;;;;;;;5.00;1.80;;;10.00;99.90;;;;;;5024373;28;20075;-70
2022/05/12 02:23:54;;;;;;;7.13;2.10;;;10.00;99.90;;;;;;5008414;28;20120;-70
2022/05/12 02:26:20;;;;;;;2.85;1.40;;;10.00;99.90;;;;;;5024628;28;20045;-70
2022/05/12 02:28:46;;;;;;;7.10;2.08;;;9.90;99.90;;;;;;5008018;28;20057;-71
2022/05/12 02:31:12;;;;;;;3.20;1.65;;;9.90;99.90;;;;;;4992272;28;20077;-70
2022/05/12 02:33:38;;;;;;;6.32;2.30;;;9.90;99.90;;;;;;5024336;28;20527;-70
2022/05/12 02:36:05;;;;;;;7.63;2.85;;;9.80;99.90;;;;;;4991071;28;20416;-70
2022/05/12 02:38:31;;;;;;;5.65;2.17;;;9.70;99.90;;;;;;5006943;28;20061;-70
2022/05/12 02:40:57;;;;;;;5.43;2.00;;;9.60;99.90;;;;;;4988880;28;20037;-70
2022/05/12 02:43:25;;;;;;;6.88;1.92;;;9.60;99.90;;;;;;4988475;28;20056;-70
2022/05/12 02:45:53;;;;;;;5.18;2.35;;;9.60;99.90;;;;;;5007903;28;20056;-70
2022/05/12 02:48:21;;;;;;;4.35;1.88;;;9.60;99.90;;;;;;5024398;28;20037;-70
2022/05/12 02:50:48;;;;;;;4.85;1.92;;;9.60;99.90;;;;;;5005389;28;20124;-70
2022/05/12 02:53:14;;;;;;;5.07;2.30;;;9.60;99.90;;;;;;5007248;28;20041;-70
2022/05/12 02:55:40;;;;;;;5.55;1.95;;;9.50;99.90;;;;;;5023551;28;20122;-70
2022/05/12 02:58:06;;;;;;;7.28;2.17;;;9.50;99.90;;;;;;5006890;28;20037;-70
2022/05/12 03:00:33;;;;;;;6.28;2.05;;;9.50;99.90;;;;;;5023729;28;20106;-70
2022/05/12 03:02:59;;;;;;;10.82;3.00;;;9.50;99.90;;;;;;5005550;28;20131;-70
2022/05/12 03:05:25;;;;;;;8.02;2.30;;;9.60;99.90;;;;;;5004422;28;20049;-70
2022/05/12 03:07:52;;;;;;;7.35;2.20;;;9.50;99.90;;;;;;5023710;28;20049;-70
2022/05/12 03:10:18;;;;;;;8.05;2.22;;;9.60;99.90;;;;;;4991346;28;20136;-70
2022/05/12 03:12:44;;;;;;;7.45;2.55;;;9.60;99.90;;;;;;5023434;28;20049;-70
2022/05/12 03:15:11;;;;;;;8.88;2.83;;;9.60;99.90;;;;;;4987557;28;20033;-70
2022/05/12 03:17:37;;;;;;;6.45;1.92;;;9.60;99.90;;;;;;5003954;28;20146;-70
2022/05/12 03:20:05;;;;;;;9.43;3.28;;;9.60;99.90;;;;;;5020550;28;20546;-71
2022/05/12 03:22:31;;;;;;;9.20;3.47;;;9.60;99.90;;;;;;5019322;28;20107;-70
2022/05/12 03:24:57;;;;;;;8.48;2.75;;;9.50;99.90;;;;;;5004209;28;20061;-71
2022/05/12 03:27:23;;;;;;;7.18;2.65;;;9.50;99.90;;;;;;4986149;28;20128;-70
2022/05/12 03:29:49;;;;;;;8.05;3.08;;;9.60;99.90;;;;;;5006620;28;20045;-70
2022/05/12 03:32:15;;;;;;;11.07;3.92;;;9.50;99.90;;;;;;5006621;28;20033;-70
2022/05/12 03:34:41;;;;;;;6.75;3.00;;;9.50;99.90;;;;;;5023437;28;20042;-70
2022/05/12 03:37:08;;;;;;;11.93;3.88;;;9.50;99.90;;;;;;5022206;28;20099;-70
2022/05/12 03:39:39;;;;;;;9.45;3.55;;;9.50;99.90;;;;;;5004840;28;20050;-70
2022/05/12 03:42:10;;;;;;;7.43;3.67;;;9.50;99.90;;;;;;4995433;28;20054;-70
2022/05/12 03:44:46;;;;;;;6.93;3.15;;;9.50;99.90;;;;;;5004616;28;20728;-70
2022/05/12 03:47:33;;;;;;;9.20;3.22;;;9.60;99.90;;;;;;5038460;28;20080;-71
2022/05/12 03:50:04;;;;;;;7.35;3.13;;;9.50;99.90;;;;;;5012512;28;20041;-70
2022/05/12 03:52:31;;;;;;;8.18;3.85;;;9.50;99.90;;;;;;5021553;28;20451;-70
2022/05/12 03:54:57;;;;;;;6.90;3.05;;;9.50;99.90;;;;;;5022953;28;20092;-71
2022/05/12 03:57:24;;;;;;;7.40;3.42;;;9.50;99.90;;;;;;5023363;28;20198;-70
2022/05/12 03:59:50;;;;;;;5.60;3.13;;;9.50;99.90;;;;;;5006657;28;20156;-70
2022/05/12 04:02:18;;;;;;;9.90;3.20;;;9.50;99.90;;;;;;5003752;28;20048;-70
2022/05/12 04:04:47;;;;;;;7.50;3.72;;;9.50;99.90;;;;;;5005135;28;20057;-70
2022/05/12 04:07:16;;;;;;;8.82;4.10;;;9.40;99.90;;;;;;5019567;28;20061;-70
2022/05/12 04:09:42;;;;;;;9.27;4.53;;;9.40;99.90;;;;;;5006337;28;20045;-70
2022/05/12 04:12:11;;;;;;;10.40;4.75;;;9.40;99.90;;;;;;5006724;28;20130;-69
2022/05/12 04:14:39;;;;;;;9.55;4.45;;;9.40;99.90;;;;;;4990754;28;20051;-69
2022/05/12 04:17:06;;;;;;;11.02;4.32;;;9.40;99.90;;;;;;5001923;28;20401;-71
2022/05/12 04:19:32;;;;;;;8.90;4.05;;;9.50;99.90;;;;;;5017874;28;20053;-69
2022/05/12 04:21:58;;;;;;;9.40;4.28;;;9.50;99.90;;;;;;5018421;28;20068;-70
2022/05/12 04:24:23;;;;;;;10.18;4.00;;;9.50;99.90;;;;;;5001014;28;20111;-70
2022/05/12 04:26:49;;;;;;;13.45;5.07;;;9.50;99.90;;;;;;5016839;28;20057;-70
2022/05/12 04:29:15;;;;;;;8.88;4.70;;;9.50;99.90;;;;;;5005841;28;20525;-70
2022/05/12 04:31:41;;;;;;;10.70;4.10;;;9.50;99.90;;;;;;5006541;28;20127;-71
2022/05/12 04:36:53;;;;;;;12.63;5.65;;;9.60;99.90;;;;;;5006331;28;20107;-70
2022/05/12 04:39:19;;;;;;;11.70;5.25;;;9.60;99.90;;;;;;5022319;28;20103;-70
2022/05/12 04:41:45;;;;;;;13.77;5.40;;;9.60;99.90;;;;;;5005575;28;20483;-71
2022/05/12 04:44:12;;;;;;;12.45;5.30;;;9.70;99.90;;;;;;5006361;28;20068;-71
2022/05/12 04:46:40;;;;;;;14.27;5.75;;;9.70;99.90;;;;;;5005952;28;20041;-70
2022/05/12 04:49:07;;;;;;;11.23;6.03;;;9.70;99.90;;;;;;5022405;28;20041;-70
2022/05/12 04:51:33;;;;;;;10.82;5.57;;;9.70;99.90;;;;;;5005658;28;20041;-70
2022/05/12 04:54:00;;;;;;;10.88;5.20;;;9.80;99.90;;;;;;5022384;28;20132;-70
2022/05/12 04:56:26;;;;;;;15.05;6.20;;;9.80;99.90;;;;;;5022484;28;21169;-70
2022/05/12 04:58:52;;;;;;;11.90;5.70;;;9.90;99.90;;;;;;5005934;28;20060;-70
2022/05/12 05:01:18;;;;;;;13.73;6.50;;;9.90;99.90;;;;;;5002078;28;20115;-70
2022/05/12 05:03:44;;;;;;;10.50;5.57;;;9.90;99.90;;;;;;4984483;28;20049;-70
2022/05/12 05:06:10;;;;;;;12.13;5.60;;;10.00;99.90;;;;;;5002258;28;20041;-71
2022/05/12 05:08:36;;;;;;;13.68;6.60;;;10.00;99.90;;;;;;4982501;28;20064;-70
2022/05/12 05:11:06;;;;;;;12.20;6.75;;;10.10;99.90;;;;;;5022878;28;20072;-70
2022/05/12 05:13:33;;;;;;;15.38;6.93;;;10.10;99.90;;;;;;5010089;28;20364;-70
2022/05/12 05:15:59;;;;;;;13.50;6.20;;;10.20;99.90;;;;;;4992657;28;20316;-70
2022/05/12 05:18:25;;;;;;;14.25;6.97;;;10.20;99.90;;;;;;5024732;28;20083;-69
2022/05/12 05:20:52;;;;;;;13.65;6.78;;;10.30;99.90;;;;;;5021855;28;21135;-70
2022/05/12 05:23:21;;;;;;;13.18;7.55;;;10.30;99.90;;;;;;5007843;28;20051;-70
2022/05/12 05:25:51;;;;;;;10.13;7.07;;;10.40;99.90;;;;;;5024797;28;20045;-71
2022/05/12 05:28:17;;;;;;;12.05;7.60;;;10.40;99.90;;;;;;5047549;28;20045;-70
2022/05/12 05:30:44;;;;;;;14.73;7.82;;;10.50;99.90;;;;;;5019937;28;20083;-70
2022/05/12 05:33:10;;;;;;;11.63;6.75;;;10.60;99.90;;;;;;5016932;28;20043;-70
2022/05/12 05:35:35;;;;;;;12.82;6.75;;;10.60;99.90;;;;;;5018583;28;20099;-70
2022/05/12 05:38:02;;;;;;;12.00;7.60;;;10.60;99.90;;;;;;5009514;28;20033;-70
2022/05/12 05:40:31;;;;;;;16.13;7.97;;;10.60;99.90;;;;;;5014186;28;20045;-69
2022/05/12 05:42:58;;;;;;;13.88;7.80;;;10.70;99.90;;;;;;5004840;28;20122;-70
2022/05/12 05:45:25;;;;;;;16.58;8.18;;;10.70;99.90;;;;;;5004309;28;20178;-69
2022/05/12 05:47:55;;;;;;;13.57;8.68;;;10.80;99.90;;;;;;5021815;28;20051;-69
2022/05/12 05:50:25;;;;;;;16.88;8.68;;;10.90;99.90;;;;;;5019403;28;20049;-70
2022/05/12 05:55:35;;;;;;;15.93;9.75;;;11.00;99.90;;;;;;5015196;28;20056;-69
2022/05/12 05:58:03;;;;;;;14.77;10.48;;;11.00;99.90;;;;;;5005318;28;20052;-69
2022/05/12 06:00:31;;;;;;;18.70;11.50;;;11.10;99.90;;;;;;5021605;28;20045;-70
2022/05/12 06:02:57;;;;;;;15.73;11.50;;;11.20;99.90;;;;;;5008709;28;20458;-71
2022/05/12 06:05:23;;;;;;;15.88;10.93;;;11.20;99.90;;;;;;5008045;28;20052;-69
2022/05/12 06:07:49;;;;;;;19.50;12.15;;;11.40;99.90;;;;;;5024999;28;20057;-70
2022/05/12 06:10:16;;;;;;;16.95;12.07;;;11.40;99.90;;;;;;5008297;28;20040;-69
2022/05/12 06:12:41;;;;;;;17.33;12.20;;;11.50;99.90;;;;;;5008650;28;20044;-69
2022/05/12 06:15:09;;;;;;;17.30;11.73;;;11.60;99.90;;;;;;5007549;28;20454;-69
2022/05/12 06:17:36;;;;;;;17.17;11.15;;;11.70;99.90;;;;;;5019884;28;20049;-69
2022/05/12 06:20:04;;;;;;;19.75;11.10;;;11.80;99.90;;;;;;5024197;28;20422;-69
2022/05/12 06:22:30;;;;;;;13.75;10.70;;;11.80;99.90;;;;;;5005303;28;20408;-69
2022/05/12 06:24:56;;;;;;;17.40;11.00;;;11.90;99.90;;;;;;5017986;28;20227;-69
2022/05/12 06:27:24;;;;;;;14.15;9.95;;;12.00;99.90;;;;;;5004744;28;20040;-69
2022/05/12 06:29:51;;;;;;;17.48;10.15;;;12.00;99.90;;;;;;5022693;28;20099;-69
2022/05/12 06:32:17;;;;;;;14.88;10.93;;;12.10;99.90;;;;;;5010850;28;20047;-69
2022/05/12 06:34:43;;;;;;;13.70;9.90;;;12.20;99.90;;;;;;5027291;28;20045;-70
2022/05/12 06:37:12;;;;;;;12.98;9.95;;;12.30;99.90;;;;;;5010050;28;20116;-69
2022/05/12 06:39:39;;;;;;;14.93;10.48;;;12.40;99.90;;;;;;5021549;28;20055;-69
2022/05/12 06:42:06;;;;;;;14.07;9.57;;;12.50;99.90;;;;;;5010005;28;20418;-69
2022/05/12 06:44:34;;;;;;;15.48;9.57;;;12.60;99.90;;;;;;5008534;28;20137;-69
2022/05/12 06:47:00;;;;;;;12.43;8.95;;;12.70;99.90;;;;;;5027235;28;20124;-69
2022/05/12 06:49:28;;;;;;;12.77;7.75;;;12.80;99.90;;;;;;5010900;28;20102;-69
2022/05/12 06:51:55;;;;;;;14.38;7.25;;;12.90;99.90;;;;;;5009247;28;20045;-69
2022/05/12 06:54:22;;;;;;;13.55;8.55;;;13.00;99.90;;;;;;5011038;28;20037;-69
2022/05/12 06:56:48;;;;;;;13.20;7.28;;;13.10;99.90;;;;;;5024657;28;20076;-69
2022/05/12 06:59:15;;;;;;;12.80;7.18;;;13.20;99.90;;;;;;5010346;28;20127;-69
2022/05/12 07:01:41;;;;;;;11.85;6.32;;;13.30;99.90;;;;;;5009283;28;20613;-69
2022/05/12 07:04:06;;;;;;;9.95;5.90;;;13.40;99.90;;;;;;4991015;28;20057;-70
2022/05/12 07:06:32;;;;;;;10.20;5.85;;;13.50;99.90;;;;;;5006147;28;20075;-69
2022/05/12 07:08:58;;;;;;;11.85;5.43;;;13.70;99.90;;;;;;5007186;28;20072;-69
2022/05/12 07:11:24;;;;;;;10.68;4.60;;;13.80;99.90;;;;;;5020534;28;20040;-69
2022/05/12 07:13:50;;;;;;;8.07;4.45;;;13.90;99.90;;;;;;5009738;28;20454;-70
2022/05/12 07:16:16;;;;;;;13.95;5.13;;;14.00;99.90;;;;;;4994086;28;20059;-70
2022/05/12 07:18:41;;;;;;;8.63;4.70;;;14.10;99.90;;;;;;5026802;28;20057;-70
2022/05/12 07:26:41;;;;;;;7.70;3.10;;;14.60;99.90;;;;;;5024170;28;20555;-70
2022/05/12 07:29:09;;;;;;;9.32;3.00;;;14.70;99.90;;;;;;5010977;28;20047;-71
2022/05/12 07:31:35;;;;;;;7.47;2.42;;;14.80;99.90;;;;;;5026799;28;20473;-70
2022/05/12 07:34:01;;;;;;;7.47;2.47;;;14.90;99.90;;;;;;5008504;28;20135;-70
2022/05/12 07:36:34;;;;;;;6.88;2.22;;;15.10;99.90;;;;;;5010314;28;20124;-71
2022/05/12 07:39:00;;;;;;;7.53;2.28;;;15.20;99.90;;;;;;5010191;28;20076;-70
2022/05/12 07:41:27;;;;;;;9.63;2.65;;;15.40;99.90;;;;;;5008222;28;20131;-70
2022/05/12 07:43:54;;;;;;;7.93;2.92;;;15.50;99.90;;;;;;5009405;28;20061;-70
2022/05/12 07:46:27;;;;;;;8.15;2.30;;;15.60;99.90;;;;;;4993454;28;20045;-71
2022/05/12 07:48:53;;;;;;;5.18;1.83;;;15.70;99.90;;;;;;5026352;28;20056;-70
2022/05/12 07:51:20;;;;;;;6.53;2.10;;;15.80;99.90;;;;;;5004445;28;20499;-71
2022/05/12 07:53:47;;;;;;;6.85;1.80;;;15.90;99.90;;;;;;5023247;28;20053;-70
2022/05/12 07:56:15;;;;;;;7.72;2.08;;;16.00;99.90;;;;;;5010170;28;20053;-71
2022/05/12 07:58:41;;;;;;;6.22;1.73;;;16.10;99.90;;;;;;5024537;28;20056;-70
2022/05/12 08:01:07;;;;;;;5.47;1.70;;;16.10;99.90;;;;;;5024162;28;20080;-70
2022/05/12 08:03:34;;;;;;;6.53;2.00;;;16.30;99.90;;;;;;5024691;28;20087;-71
2022/05/12 08:06:01;;;;;;;6.85;1.60;;;16.50;99.90;;;;;;5005810;28;20152;-70
2022/05/12 08:08:28;;;;;;;6.55;1.77;;;16.60;99.90;;;;;;5025536;28;20047;-70
2022/05/12 08:10:54;;;;;;;6.50;1.77;;;16.80;99.90;;;;;;4990709;28;20431;-70
2022/05/12 08:13:21;;;;;;;6.07;1.80;;;17.00;99.90;;;;;;5009974;28;20055;-70
2022/05/12 08:15:49;;;;;;;6.97;2.40;;;17.10;99.90;;;;;;5025620;28;20384;-71
2022/05/12 08:18:24;;;;;;;8.90;2.42;;;17.10;99.90;;;;;;5025848;28;20131;-71
2022/05/12 08:20:51;;;;;;;6.25;1.83;;;16.90;99.90;;;;;;5009845;28;20065;-71
2022/05/12 08:23:17;;;;;;;6.82;2.20;;;16.90;99.90;;;;;;5025917;28;20064;-71
2022/05/12 08:25:44;;;;;;;7.57;2.13;;;16.90;99.90;;;;;;5025855;28;20053;-71
2022/05/12 08:28:13;;;;;;;6.70;2.22;;;17.00;99.90;;;;;;5009868;28;20472;-71
2022/05/12 08:30:39;;;;;;;5.78;1.88;;;17.10;99.90;;;;;;4993276;28;20036;-71
2022/05/12 08:33:05;;;;;;;7.38;3.03;;;17.10;99.90;;;;;;4993281;28;20499;-70
2022/05/12 08:35:31;;;;;;;6.63;1.77;;;17.30;99.90;;;;;;5025534;28;20499;-71
2022/05/12 08:37:56;;;;;;;7.28;1.70;;;17.20;99.90;;;;;;4992533;28;20057;-71
2022/05/12 08:40:44;;;;;;;6.40;1.40;;;17.20;99.90;;;;;;4996886;28;20068;-71
2022/05/12 08:43:28;;;;;;;5.65;1.73;;;17.10;99.90;;;;;;5035788;28;20507;-71
2022/05/12 08:46:01;;;;;;;6.45;2.50;;;17.10;99.90;;;;;;5020495;28;20128;-71
2022/05/12 08:48:27;;;;;;;7.13;1.95;;;17.30;99.90;;;;;;5025413;28;20080;-71
2022/05/12 08:50:55;;;;;;;8.65;1.98;;;17.50;99.90;;;;;;4989161;28;20091;-71
2022/05/12 08:53:25;;;;;;;6.22;2.03;;;17.60;99.90;;;;;;5025390;28;20151;-72
2022/05/12 08:55:59;;;;;;;5.82;1.90;;;17.60;99.90;;;;;;5008998;28;20056;-71
2022/05/12 08:58:47;;;;;;;7.15;2.30;;;17.60;99.90;;;;;;5011256;28;20148;-71
2022/05/12 09:01:37;;;;;;;5.78;1.90;;;17.60;99.90;;;;;;5025305;28;20119;-71
2022/05/12 09:04:17;;;;;;;6.85;1.75;;;17.70;99.90;;;;;;5026288;28;20053;-71
2022/05/12 09:06:58;;;;;;;5.05;1.45;;;17.80;99.90;;;;;;5027488;28;20414;-71
2022/05/12 09:09:26;;;;;;;8.85;2.38;;;17.90;99.90;;;;;;5029409;28;20506;-71
2022/05/12 09:12:26;;;;;;;8.00;1.50;;;18.00;99.90;;;;;;5010277;28;20045;-72
2022/05/12 09:15:03;;;;;;;6.22;2.13;;;18.20;99.90;;;;;;5043880;28;20533;-71
2022/05/12 09:17:39;;;;;;;5.57;1.83;;;18.20;99.90;;;;;;5026683;28;20071;-71
2022/05/12 09:20:09;;;;;;;6.80;1.88;;;18.30;99.90;;;;;;5029293;28;20536;-72
2022/05/12 09:22:36;;;;;;;5.40;1.70;;;18.30;99.90;;;;;;5025906;28;20055;-72
2022/05/12 09:25:02;;;;;;;7.18;2.00;;;18.10;99.90;;;;;;5028971;28;20107;-72
2022/05/12 09:27:32;;;;;;;6.55;1.88;;;18.00;99.90;;;;;;5028513;28;20048;-71
2022/05/12 09:29:59;;;;;;;7.60;1.90;;;18.20;99.90;;;;;;5029059;28;20324;-71
2022/05/12 09:32:31;;;;;;;10.80;2.40;;;18.30;99.90;;;;;;5028127;28;20392;-72
2022/05/12 09:35:06;;;;;;;6.90;1.75;;;18.40;99.90;;;;;;5011188;28;20056;-71
2022/05/12 09:37:32;;;;;;;5.63;1.10;;;18.40;99.90;;;;;;5026288;28;20040;-71
2022/05/12 09:40:17;;;;;;;4.00;1.17;;;18.40;99.90;;;;;;4992459;28;21132;-71
2022/05/12 09:42:52;;;;;;;4.95;1.30;;;18.30;99.10;;;;;;5006754;28;20075;-71
2022/05/12 09:45:36;;;;;;;6.45;1.75;;;18.00;99.70;;;;;;5043848;28;20120;-72
2022/05/12 09:48:24;;;;;;;3.42;1.23;;;17.90;99.90;;;;;;5020976;28;20032;-71
2022/05/12 09:50:51;;;;;;;7.43;1.38;;;18.00;99.90;;;;;;5021504;28;20048;-73
2022/05/12 09:53:30;;;;;;;4.75;1.35;;;18.20;99.70;;;;;;5026266;28;20522;-73
2022/05/12 09:56:04;;;;;;;7.35;1.52;;;18.30;99.50;;;;;;5010665;28;20044;-73
2022/05/12 09:58:41;;;;;;;6.43;1.05;;;18.40;99.80;;;;;;5028110;28;20057;-73
2022/05/12 10:01:23;;;;;;;4.10;0.98;;;18.40;97.50;;;;;;5022976;28;20044;-73
2022/05/12 10:09:31;;;;;;;5.53;1.48;;;18.70;98.80;;;;;;5010834;28;20041;-71
2022/05/12 10:12:08;;;;;;;4.60;1.15;;;19.00;98.70;;;;;;5021097;28;20036;-71
2022/05/12 10:14:52;;;;;;;5.22;1.23;;;19.10;95.90;;;;;;5008235;28;20174;-71
2022/05/12 10:17:40;;;;;;;4.40;0.90;;;19.00;95.40;;;;;;5024025;28;20040;-72
2022/05/12 10:20:18;;;;;;;4.95;1.10;;;19.20;94.40;;;;;;5023408;28;20427;-71
2022/05/12 10:23:22;;;;;;;5.15;0.90;;;19.30;90.90;;;;;;5006544;28;20084;-73
2022/05/12 10:26:20;;;;;;;4.05;1.10;;;19.30;90.50;;;;;;5023583;28;20124;-71
2022/05/12 10:29:24;;;;;;;4.78;1.55;;;19.50;92.40;;;;;;5006368;28;20575;-72
2022/05/12 10:31:53;;;;;;;6.32;1.15;;;19.30;89.40;;;;;;4979671;28;20066;-72
2022/05/12 10:34:40;;;;;;;5.40;1.00;;;19.00;90.30;;;;;;5011269;28;20427;-72
2022/05/12 10:37:48;;;;;;;4.20;1.33;;;18.90;92.30;;;;;;5024785;28;20041;-72
2022/05/12 10:40:29;;;;;;;5.15;1.40;;;18.70;93.90;;;;;;5024325;28;20114;-71
2022/05/12 10:43:09;;;;;;;4.68;1.13;;;18.60;93.60;;;;;;5020821;28;20123;-71
2022/05/12 10:45:57;;;;;;;4.80;1.40;;;18.50;92.20;;;;;;5041518;28;20463;-72
2022/05/12 10:48:58;;;;;;;3.55;0.95;;;18.40;91.10;;;;;;5024912;28;20045;-72
2022/05/12 10:51:50;;;;;;;3.25;1.48;;;18.50;90.30;;;;;;5006474;28;20129;-72
2022/05/12 10:54:22;;;;;;;6.35;1.02;;;18.50;86.70;;;;;;5007670;28;20114;-73
2022/05/12 10:56:59;;;;;;;5.55;1.08;;;18.40;90.90;;;;;;5019647;28;20044;-73
2022/05/12 10:59:40;;;;;;;3.83;1.50;;;18.30;90.80;;;;;;5005251;28;20395;-73
2022/05/12 11:02:12;;;;;;;5.85;1.15;;;18.60;90.10;;;;;;5021522;28;20495;-73
2022/05/12 11:05:17;;;;;;;3.97;1.25;;;18.90;90.40;;;;;;5007507;28;20459;-74
2022/05/12 11:07:48;;;;;;;4.82;1.25;;;19.10;89.00;;;;;;4993001;28;20049;-73
2022/05/12 11:10:31;;;;;;;5.28;1.00;;;19.10;87.10;;;;;;5006754;28;20320;-73
2022/05/12 11:13:03;;;;;;;6.05;1.27;;;18.90;83.30;;;;;;5022003;28;20081;-72
2022/05/12 11:15:46;;;;;;;4.63;1.15;;;18.80;85.20;;;;;;5022293;28;20068;-73
2022/05/12 11:18:21;;;;;;;4.78;1.20;;;19.00;90.80;;;;;;5023843;28;20989;-71
2022/05/12 11:20:57;;;;;;;3.78;1.05;;;19.10;85.60;;;;;;5021631;28;20442;-70
2022/05/12 11:23:58;;;;;;;3.30;0.77;;;18.90;82.80;;;;;;5015423;28;20057;-70
2022/05/12 11:26:55;;;;;;;4.05;1.17;;;18.60;83.30;;;;;;5016927;28;20037;-70
2022/05/12 11:29:44;;;;;;;3.20;1.20;;;18.50;90.10;;;;;;5022514;28;20037;-72
2022/05/12 11:32:21;;;;;;;6.85;1.45;;;18.70;91.50;;;;;;5020424;28;20354;-71
2022/05/12 11:34:52;;;;;;;6.45;1.83;;;19.20;90.10;;;;;;5021820;28;20049;-71
2022/05/12 11:37:41;;;;;;;4.38;1.20;;;19.50;92.00;;;;;;5001082;28;20329;-71
2022/05/12 11:40:32;;;;;;;5.38;1.10;;;19.80;90.50;;;;;;5002969;28;20140;-71
2022/05/12 11:45:48;;;;;;;4.90;1.40;;;20.50;82.00;;;;;;5023186;28;20431;-71
2022/05/12 11:48:41;;;;;;;3.72;1.20;;;20.30;76.40;;;;;;5005685;28;20248;-71
2022/05/12 11:51:25;;;;;;;4.10;1.10;;;20.10;72.80;;;;;;5020127;28;20138;-71
2022/05/12 11:53:55;;;;;;;5.88;0.90;;;20.00;83.50;;;;;;5006690;28;20111;-71
2022/05/12 11:56:49;;;;;;;3.85;1.50;;;20.30;81.00;;;;;;5024186;28;20376;-71
2022/05/12 11:59:30;;;;;;;6.00;1.17;;;20.60;72.90;;;;;;5022763;28;20052;-70
2022/05/12 12:01:59;;;;;;;3.35;0.90;;;20.70;74.80;;;;;;5021001;28;20127;-71
2022/05/12 12:04:40;;;;;;;4.30;0.93;;;20.70;75.50;;;;;;5022582;28;20098;-71
2022/05/12 12:07:32;;;;;;;4.55;1.08;;;20.80;78.70;;;;;;5020305;28;20110;-70
2022/05/12 12:10:22;;;;;;;4.05;0.95;;;21.00;76.60;;;;;;4994812;28;20521;-71
2022/05/12 12:12:54;;;;;;;3.13;0.70;;;21.30;80.20;;;;;;5022430;28;20048;-71
2022/05/12 12:15:28;;;;;;;4.05;0.90;;;21.60;75.70;;;;;;5021687;28;20546;-70
2022/05/12 12:17:54;;;;;;;5.22;1.08;;;21.70;70.30;;;;;;5018159;28;20495;-71
2022/05/12 12:20:29;;;;;;;4.60;0.90;;;21.40;65.40;;;;;;5003597;28;20045;-71
2022/05/12 12:22:57;;;;;;;3.95;1.08;;;20.90;66.50;;;;;;5010469;28;20037;-71
2022/05/12 12:25:45;;;;;;;3.53;0.75;;;20.70;67.40;;;;;;5020772;28;20106;-71
2022/05/12 12:28:23;;;;;;;4.38;1.25;;;20.50;70.80;;;;;;5021574;28;20056;-71
2022/05/12 12:30:55;;;;;;;5.07;1.90;;;20.40;70.20;;;;;;5007428;28;20061;-71
2022/05/12 12:33:24;;;;;;;5.53;1.40;;;20.30;73.40;;;;;;5010418;28;20048;-71
2022/05/12 12:36:01;;;;;;;4.80;1.20;;;20.30;70.10;;;;;;5020417;28;20053;-71
2022/05/12 12:38:48;;;;;;;4.03;1.05;;;20.40;72.00;;;;;;5025036;28;20091;-70
2022/05/12 12:41:35;;;;;;;3.05;0.82;;;20.40;67.60;;;;;;5019936;28;20408;-71
2022/05/12 12:44:17;;;;;;;4.35;1.10;;;20.20;68.40;;;;;;5010215;28;20048;-70
2022/05/12 12:47:07;;;;;;;3.72;0.85;;;20.10;68.10;;;;;;5008661;28;20053;-71
2022/05/12 12:50:03;;;;;;;6.38;1.00;;;20.10;69.10;;;;;;5026023;28;20421;-70
2022/05/12 12:52:29;;;;;;;3.67;0.88;;;19.90;67.90;;;;;;5018986;28;20216;-71
2022/05/12 12:57:48;;;;;;;4.97;1.13;;;19.50;70.30;;;;;;5024485;28;20059;-71
2022/05/12 13:00:27;;;;;;;2.83;0.90;;;19.70;72.20;;;;;;5024354;28;20048;-70
2022/05/12 13:03:20;;;;;;;2.45;1.00;;;19.90;72.50;;;;;;5019194;28;20249;-72
2022/05/12 13:05:48;;;;;;;4.45;1.17;;;20.20;71.60;;;;;;5022160;28;20199;-71
2022/05/12 13:08:24;;;;;;;2.67;0.80;;;20.30;66.80;;;;;;5025982;28;20067;-71
2022/05/12 13:10:58;;;;;;;4.07;1.08;;;20.40;71.20;;;;;;5024271;28;20053;-71
2022/05/12 13:13:24;;;;;;;3.55;0.90;;;20.70;66.60;;;;;;5025604;28;20429;-71
2022/05/12 13:15:57;;;;;;;5.63;1.30;;;20.70;62.90;;;;;;5006875;28;20605;-71
2022/05/12 13:18:28;;;;;;;5.45;1.30;;;20.60;59.00;;;;;;5023388;28;20119;-71
2022/05/12 13:20:55;;;;;;;4.13;1.15;;;20.30;58.40;;;;;;5022710;28;20057;-71
2022/05/12 13:23:28;;;;;;;5.95;1.10;;;20.30;59.10;;;;;;5009792;28;20045;-70
2022/05/12 13:25:55;;;;;;;5.35;1.02;;;20.30;57.60;;;;;;5023671;28;20057;-71
2022/05/12 13:28:24;;;;;;;4.40;0.85;;;20.20;59.70;;;;;;5005811;28;20045;-71